Time;durP1;ratioP1;P1;durP2;ratioP2;P2;SDS_P1;SDS_P2;PMS_P1;PMS_P2;Temp;Humidity;BMP_temperature;BMP_pressure;BME280_temperature;BME280_humidity;BME280_pressure;Samples;Min_cycle;Max_cycle;Signal;HPM_P1;HPM_P2
2023/07/17 08:34:31;;;;;;;5.65;1.85;;;20.20;99.90;;;;;;4937489;28;20058;-82
2023/07/17 08:36:57;;;;;;;4.88;1.05;;;20.00;99.90;;;;;;4921984;28;20039;-83
2023/07/17 08:39:23;;;;;;;6.45;1.65;;;20.10;99.90;;;;;;4938560;28;20052;-84
2023/07/17 08:41:50;;;;;;;7.60;2.08;;;19.70;99.90;;;;;;4937220;28;20035;-84
2023/07/17 08:44:18;;;;;;;3.65;1.35;;;20.20;99.90;;;;;;4936854;28;20616;-84
2023/07/17 08:46:47;;;;;;;3.88;1.23;;;20.90;99.90;;;;;;4940949;28;20464;-87
2023/07/17 08:49:18;;;;;;;6.40;2.13;;;21.00;99.90;;;;;;4910283;28;20339;-84
2023/07/17 08:51:49;;;;;;;8.15;1.45;;;19.10;99.90;;;;;;4941440;28;20043;-86
2023/07/17 08:54:16;;;;;;;7.32;1.77;;;18.60;99.90;;;;;;4921171;28;20335;-84
2023/07/17 08:56:43;;;;;;;6.40;1.67;;;18.80;99.90;;;;;;4937133;28;20039;-84
2023/07/17 08:59:10;;;;;;;5.55;1.63;;;19.60;99.90;;;;;;4912616;28;20363;-81
2023/07/17 09:01:36;;;;;;;6.93;1.60;;;20.40;99.90;;;;;;4938213;28;20040;-81
2023/07/17 09:04:06;;;;;;;6.53;1.80;;;20.40;99.90;;;;;;4939913;28;20132;-85
2023/07/17 09:06:32;;;;;;;7.03;1.52;;;21.40;99.90;;;;;;4923019;28;20042;-85
2023/07/17 09:08:58;;;;;;;6.20;1.52;;;21.30;99.90;;;;;;4938635;28;20038;-86
2023/07/17 09:11:23;;;;;;;5.35;1.10;;;20.20;99.90;;;;;;4941340;28;20071;-84
2023/07/17 09:13:52;;;;;;;5.80;1.60;;;19.50;99.90;;;;;;4943140;28;20070;-85
2023/07/17 09:16:24;;;;;;;5.77;1.50;;;19.00;99.90;;;;;;4927139;28;20035;-85
2023/07/17 09:18:52;;;;;;;4.10;1.02;;;19.10;99.90;;;;;;4907733;28;20134;-84
2023/07/17 09:21:19;;;;;;;5.75;1.48;;;19.20;99.90;;;;;;4941705;28;20428;-82
2023/07/17 09:23:48;;;;;;;6.07;1.10;;;19.40;99.90;;;;;;4920229;28;20126;-84
2023/07/17 09:26:15;;;;;;;3.88;0.73;;;20.00;99.90;;;;;;4940025;28;20043;-84
2023/07/17 09:28:57;;;;;;;4.05;0.90;;;21.30;99.90;;;;;;4923944;28;20503;-84
2023/07/17 09:31:31;;;;;;;5.78;1.10;;;21.20;99.90;;;;;;4921290;28;20039;-85
2023/07/17 09:34:04;;;;;;;3.50;0.70;;;20.40;99.90;;;;;;4924239;28;20055;-84
2023/07/17 09:36:29;;;;;;;4.78;1.25;;;20.90;99.90;;;;;;4908603;28;20270;-85
2023/07/17 09:38:57;;;;;;;5.75;1.05;;;20.90;99.90;;;;;;4926269;28;20251;-86
2023/07/17 09:41:24;;;;;;;3.20;0.70;;;20.90;99.90;;;;;;4921284;28;20118;-87
2023/07/17 09:44:02;;;;;;;2.97;0.60;;;21.70;99.90;;;;;;4939980;28;20352;-84
2023/07/17 09:46:29;;;;;;;3.55;1.00;;;22.50;99.90;;;;;;4927663;28;20031;-84
2023/07/17 09:48:56;;;;;;;2.90;0.70;;;21.80;99.90;;;;;;4918175;28;20064;-84
2023/07/17 09:51:22;;;;;;;1.90;0.50;;;21.90;99.90;;;;;;4910626;28;20047;-87
2023/07/17 09:53:48;;;;;;;4.10;0.80;;;22.10;99.90;;;;;;4929905;29;20107;-85
2023/07/17 09:56:16;;;;;;;3.22;0.88;;;21.00;99.90;;;;;;4942102;28;20047;-82
2023/07/17 09:58:46;;;;;;;4.05;0.50;;;20.80;99.90;;;;;;4935919;28;20365;-84
2023/07/17 10:01:17;;;;;;;4.15;0.70;;;21.80;99.90;;;;;;4916866;28;20509;-83
2023/07/17 10:03:48;;;;;;;3.22;0.90;;;21.90;99.90;;;;;;4927344;28;20444;-86
2023/07/17 10:06:15;;;;;;;2.40;0.50;;;21.50;99.90;;;;;;4946593;28;20159;-85
2023/07/17 10:08:44;;;;;;;3.47;0.75;;;21.20;99.90;;;;;;4930736;29;20038;-85
2023/07/17 10:11:11;;;;;;;4.38;0.90;;;20.70;99.90;;;;;;4926354;28;20035;-86
2023/07/17 10:13:37;;;;;;;4.30;0.75;;;20.80;99.90;;;;;;4928078;28;20063;-87
2023/07/17 10:16:03;;;;;;;4.97;1.00;;;20.60;99.90;;;;;;4945662;28;20043;-83
2023/07/17 10:18:30;;;;;;;3.50;0.70;;;20.10;99.90;;;;;;4925748;28;20085;-81
2023/07/17 10:20:56;;;;;;;2.03;0.60;;;20.50;99.90;;;;;;4933599;28;20047;-84
2023/07/17 10:23:26;;;;;;;4.85;0.70;;;21.40;99.90;;;;;;4929525;28;20098;-84
2023/07/17 10:26:05;;;;;;;3.60;0.70;;;21.30;99.90;;;;;;4925263;28;20031;-85
2023/07/17 10:28:33;;;;;;;2.40;0.60;;;20.50;99.90;;;;;;4924842;28;20054;-82
2023/07/17 10:31:17;;;;;;;2.85;0.70;;;20.60;99.90;;;;;;4939846;28;20044;-85
2023/07/17 10:34:06;;;;;;;2.92;0.70;;;20.90;99.90;;;;;;4937329;28;20070;-86
2023/07/17 10:36:58;;;;;;;5.37;1.17;;;21.00;99.90;;;;;;4923907;28;20035;-85
2023/07/17 10:39:26;;;;;;;2.22;0.70;;;20.60;99.90;;;;;;4918915;28;20055;-85
2023/07/17 10:41:52;;;;;;;3.85;0.88;;;21.00;99.90;;;;;;4938124;28;20162;-85
2023/07/17 10:44:21;;;;;;;3.15;0.75;;;20.50;99.90;;;;;;4937713;28;20159;-84
2023/07/17 10:46:47;;;;;;;2.07;0.60;;;20.40;99.90;;;;;;4942283;28;20040;-83
2023/07/17 10:49:15;;;;;;;2.22;0.60;;;20.40;99.90;;;;;;4924260;28;20291;-84
2023/07/17 10:51:46;;;;;;;6.78;0.98;;;20.30;99.90;;;;;;4919169;28;20043;-85
2023/07/17 10:54:13;;;;;;;5.20;0.93;;;20.10;99.90;;;;;;4938856;28;20483;-85
2023/07/17 10:56:40;;;;;;;5.28;0.80;;;20.80;99.90;;;;;;4938740;28;20396;-82
2023/07/17 10:59:06;;;;;;;3.65;0.70;;;21.30;99.90;;;;;;4939365;28;20134;-82
2023/07/17 11:01:32;;;;;;;5.50;0.82;;;21.50;99.90;;;;;;4937780;28;20436;-85
2023/07/17 11:03:57;;;;;;;4.85;1.13;;;21.20;99.90;;;;;;4940545;28;20031;-84
2023/07/17 11:06:27;;;;;;;3.63;0.70;;;22.00;99.90;;;;;;4922155;28;20121;-85
2023/07/17 11:08:56;;;;;;;3.15;0.60;;;21.60;99.90;;;;;;4921720;28;20031;-84
2023/07/17 11:11:23;;;;;;;2.42;0.65;;;21.10;99.90;;;;;;4922164;28;20040;-83
2023/07/17 11:13:49;;;;;;;5.18;0.80;;;21.30;99.90;;;;;;4924160;28;20040;-84
2023/07/17 11:16:16;;;;;;;6.40;0.80;;;21.30;99.90;;;;;;4924739;28;20092;-85
2023/07/17 11:18:49;;;;;;;4.53;0.70;;;21.60;99.90;;;;;;4944200;28;20067;-86
2023/07/17 11:21:17;;;;;;;4.28;0.57;;;21.80;99.90;;;;;;4927409;28;20050;-85
2023/07/17 11:23:53;;;;;;;2.55;0.68;;;21.50;99.90;;;;;;4932433;28;20047;-82
2023/07/17 11:26:25;;;;;;;3.83;0.60;;;21.10;99.90;;;;;;4923146;28;20058;-86
2023/07/17 11:28:59;;;;;;;3.17;0.80;;;21.00;99.90;;;;;;4928090;28;20577;-84
2023/07/17 11:31:25;;;;;;;5.78;0.75;;;20.80;99.90;;;;;;4943571;28;20569;-85
2023/07/17 11:34:05;;;;;;;2.10;0.52;;;20.90;99.90;;;;;;4925217;28;20047;-84
2023/07/17 11:36:44;;;;;;;2.75;0.60;;;21.80;99.90;;;;;;4939759;28;20122;-83
2023/07/17 11:39:18;;;;;;;2.40;0.40;;;21.90;99.90;;;;;;4922150;28;20051;-84
2023/07/17 11:41:46;;;;;;;3.45;0.73;;;21.90;99.90;;;;;;4921992;28;20051;-85
2023/07/17 11:44:13;;;;;;;2.83;0.60;;;21.00;99.90;;;;;;4925533;28;20055;-85
2023/07/17 11:46:40;;;;;;;4.32;0.60;;;20.80;99.90;;;;;;4931614;28;20074;-86
2023/07/17 11:49:06;;;;;;;1.80;0.57;;;21.60;99.90;;;;;;4931284;28;20050;-85
2023/07/17 11:51:32;;;;;;;4.85;0.60;;;22.00;99.90;;;;;;4923608;28;20036;-84
2023/07/17 11:53:58;;;;;;;3.58;0.60;;;21.90;99.90;;;;;;4941019;28;20491;-82
2023/07/17 11:56:39;;;;;;;3.80;0.52;;;22.20;99.90;;;;;;4912784;28;20084;-85
2023/07/17 11:59:08;;;;;;;3.05;0.50;;;22.10;99.90;;;;;;4942254;28;20051;-86
2023/07/17 12:01:34;;;;;;;2.53;0.40;;;22.00;99.90;;;;;;4914816;28;20118;-84
2023/07/17 12:04:41;;;;;;;3.25;0.60;;;22.30;99.90;;;;;;4943290;28;20067;-82
2023/07/17 12:07:18;;;;;;;3.35;0.40;;;22.60;99.90;;;;;;4854639;29;20138;-86
2023/07/17 12:09:45;;;;;;;1.92;0.50;;;23.10;99.90;;;;;;4852677;29;20038;-86
2023/07/17 12:12:11;;;;;;;4.38;0.50;;;22.40;99.90;;;;;;4861210;29;20500;-84
2023/07/17 12:14:36;;;;;;;2.65;0.50;;;22.50;99.90;;;;;;4857451;29;20132;-81
2023/07/17 12:17:02;;;;;;;2.35;0.43;;;22.60;99.90;;;;;;4863939;29;20137;-88
2023/07/17 12:19:28;;;;;;;2.67;0.55;;;22.10;99.90;;;;;;4862203;29;20118;-88
2023/07/17 12:21:53;;;;;;;3.25;0.60;;;22.00;99.90;;;;;;4862389;29;20294;-90
2023/07/17 12:24:21;;;;;;;2.33;0.50;;;22.10;99.90;;;;;;4852500;29;20049;-89
2023/07/17 12:26:47;;;;;;;2.15;0.50;;;22.20;99.90;;;;;;4852726;29;20040;-84
2023/07/17 12:29:13;;;;;;;2.45;0.60;;;22.80;99.90;;;;;;4861333;29;20094;-84
2023/07/17 12:31:39;;;;;;;2.55;0.50;;;23.30;99.90;;;;;;4851894;29;20064;-86
2023/07/17 12:34:04;;;;;;;2.13;0.57;;;23.50;99.90;;;;;;4847887;29;20061;-86
2023/07/17 12:36:30;;;;;;;1.90;0.50;;;24.00;99.90;;;;;;4860388;29;20049;-89
2023/07/17 12:39:14;;;;;;;2.00;0.50;;;24.10;99.90;;;;;;4853027;29;20068;-85
2023/07/17 12:41:40;;;;;;;4.40;0.80;;;22.70;99.90;;;;;;4911159;28;20051;-87
2023/07/17 12:44:06;;;;;;;5.22;0.80;;;23.60;99.90;;;;;;4927772;28;20063;-87
2023/07/17 12:46:31;;;;;;;2.63;0.77;;;22.50;99.90;;;;;;4939514;28;20036;-91
2023/07/17 12:48:57;;;;;;;2.17;0.55;;;21.40;99.90;;;;;;4942034;28;20043;-87
2023/07/17 12:51:23;;;;;;;3.47;0.70;;;21.30;99.90;;;;;;4939245;28;20352;-88
2023/07/17 12:53:49;;;;;;;4.63;0.80;;;21.30;99.90;;;;;;4923854;28;20067;-84
2023/07/17 12:56:14;;;;;;;5.50;0.70;;;21.10;99.90;;;;;;4939378;28;20121;-90
2023/07/17 12:58:40;;;;;;;3.33;0.70;;;20.70;99.90;;;;;;4921499;28;20051;-86
2023/07/17 13:01:06;;;;;;;2.35;0.60;;;20.70;99.90;;;;;;4940831;28;20047;-88
2023/07/17 13:03:31;;;;;;;6.82;0.90;;;20.40;99.90;;;;;;4908811;28;20043;-90
2023/07/17 13:05:57;;;;;;;5.70;1.10;;;20.30;99.90;;;;;;4943125;28;20042;-88
2023/07/17 13:08:23;;;;;;;4.38;1.05;;;20.30;99.90;;;;;;4923281;28;20039;-87
2023/07/17 13:10:48;;;;;;;3.72;1.00;;;20.00;99.90;;;;;;4940682;28;20040;-84
2023/07/17 13:13:14;;;;;;;3.63;1.00;;;20.10;99.90;;;;;;4923594;28;20040;-84
2023/07/17 13:15:40;;;;;;;4.68;0.90;;;20.00;99.90;;;;;;4911368;28;20047;-86
2023/07/17 13:18:05;;;;;;;5.88;0.90;;;19.90;99.90;;;;;;4927781;28;20408;-87
2023/07/17 13:20:31;;;;;;;4.15;0.80;;;19.90;99.90;;;;;;4936058;28;20059;-82
2023/07/17 13:22:57;;;;;;;4.70;0.90;;;19.90;99.90;;;;;;4908349;28;20035;-83
2023/07/17 13:25:22;;;;;;;4.15;0.70;;;19.90;99.90;;;;;;4940869;28;20126;-83
2023/07/17 13:27:48;;;;;;;6.97;1.45;;;20.10;99.90;;;;;;4942589;28;20031;-82
2023/07/17 13:30:14;;;;;;;6.18;0.98;;;20.00;99.90;;;;;;4935273;28;20035;-83
2023/07/17 13:32:39;;;;;;;3.55;1.33;;;19.90;99.90;;;;;;4922997;28;20078;-82
2023/07/17 13:35:06;;;;;;;5.68;1.65;;;19.80;99.90;;;;;;4938677;28;20133;-82
2023/07/17 13:37:32;;;;;;;5.22;1.20;;;19.50;99.90;;;;;;4932220;28;20047;-82
2023/07/17 13:39:59;;;;;;;3.40;0.65;;;18.70;99.90;;;;;;4930575;28;20118;-84
2023/07/17 13:42:24;;;;;;;3.72;0.70;;;17.60;99.90;;;;;;4930323;28;20039;-82
2023/07/17 13:44:50;;;;;;;5.30;1.33;;;16.60;99.90;;;;;;4912849;28;20062;-83
2023/07/17 13:47:16;;;;;;;5.72;1.48;;;16.40;99.90;;;;;;4939793;28;20055;-81
2023/07/17 13:49:41;;;;;;;5.90;1.20;;;16.10;99.90;;;;;;4935323;28;20535;-83
2023/07/17 13:52:07;;;;;;;4.57;1.38;;;16.00;99.90;;;;;;4922437;28;20126;-85
2023/07/17 13:54:33;;;;;;;4.55;1.25;;;16.10;99.90;;;;;;4940832;28;20137;-85
2023/07/17 13:56:59;;;;;;;4.15;1.00;;;16.10;99.90;;;;;;4942765;28;20109;-83
2023/07/17 13:59:25;;;;;;;4.07;0.98;;;16.20;99.90;;;;;;4927585;28;20115;-85
2023/07/17 14:01:51;;;;;;;4.88;1.60;;;16.40;99.90;;;;;;4916816;28;20031;-82
2023/07/17 14:04:17;;;;;;;3.00;0.70;;;16.40;99.90;;;;;;4942206;28;20044;-82
2023/07/17 14:06:42;;;;;;;2.45;0.77;;;16.60;99.90;;;;;;4923698;28;20040;-80
2023/07/17 14:09:08;;;;;;;2.92;0.88;;;17.10;99.90;;;;;;4935775;28;20082;-83
2023/07/17 14:11:34;;;;;;;2.50;0.90;;;17.10;99.90;;;;;;4924822;28;20036;-82
2023/07/17 14:14:03;;;;;;;3.65;0.80;;;17.10;99.90;;;;;;4939973;28;20097;-83
2023/07/17 14:16:29;;;;;;;2.92;0.80;;;17.40;99.90;;;;;;4937976;28;20356;-79
2023/07/17 14:18:55;;;;;;;1.80;0.63;;;17.70;99.90;;;;;;4938485;28;20039;-80
2023/07/17 14:21:21;;;;;;;3.60;0.88;;;17.70;99.90;;;;;;4924993;28;20485;-82
2023/07/17 14:23:47;;;;;;;4.20;1.40;;;18.00;99.90;;;;;;4941001;28;20439;-79
2023/07/17 14:26:13;;;;;;;3.47;1.00;;;18.00;99.90;;;;;;4929626;28;20066;-84
2023/07/17 14:28:39;;;;;;;5.57;1.13;;;18.20;99.90;;;;;;4939081;28;20051;-81
2023/07/17 14:31:05;;;;;;;2.30;0.70;;;18.40;99.90;;;;;;4939607;28;20071;-79
2023/07/17 14:33:31;;;;;;;3.78;1.23;;;18.80;99.90;;;;;;4934420;28;20085;-80
2023/07/17 14:35:56;;;;;;;3.35;1.00;;;19.00;99.90;;;;;;4906185;29;20472;-80
2023/07/17 14:38:22;;;;;;;4.57;1.15;;;18.80;99.90;;;;;;4936862;28;20118;-80
2023/07/17 14:40:48;;;;;;;3.72;0.82;;;19.00;99.90;;;;;;4907119;29;20107;-80
2023/07/17 14:43:13;;;;;;;3.88;0.90;;;18.80;99.90;;;;;;4903526;29;20036;-83
2023/07/17 14:45:39;;;;;;;2.88;1.05;;;19.00;99.90;;;;;;4920907;29;20039;-80
2023/07/17 14:48:06;;;;;;;1.98;0.60;;;19.10;99.90;;;;;;4933182;28;20047;-80
2023/07/17 14:50:31;;;;;;;3.25;0.70;;;19.00;99.90;;;;;;4918117;29;20050;-80
2023/07/17 14:52:57;;;;;;;3.50;0.70;;;18.90;99.90;;;;;;4933651;28;20147;-81
2023/07/17 14:55:23;;;;;;;2.53;0.70;;;18.80;99.90;;;;;;4901112;29;20130;-79
2023/07/17 14:57:49;;;;;;;3.22;0.82;;;19.00;99.90;;;;;;4919516;29;20071;-78
2023/07/17 15:00:15;;;;;;;3.13;1.00;;;18.80;99.90;;;;;;4918603;29;20117;-79
2023/07/17 15:02:41;;;;;;;2.95;1.20;;;18.80;99.90;;;;;;4906120;29;20067;-82
2023/07/17 15:05:08;;;;;;;3.72;1.15;;;18.80;99.90;;;;;;4924496;29;20070;-79
2023/07/17 15:07:33;;;;;;;3.55;0.93;;;19.00;99.90;;;;;;4908193;29;20506;-80
2023/07/17 15:09:59;;;;;;;4.63;1.20;;;19.10;99.90;;;;;;4934140;28;20153;-79
2023/07/17 15:12:25;;;;;;;3.60;0.85;;;19.00;99.90;;;;;;4886107;29;20157;-79
2023/07/17 15:14:51;;;;;;;5.25;1.05;;;19.00;99.90;;;;;;4919679;29;20027;-79
2023/07/17 15:17:17;;;;;;;3.63;0.80;;;19.00;99.90;;;;;;4888246;29;20064;-80
2023/07/17 15:19:43;;;;;;;3.25;1.17;;;19.00;99.90;;;;;;4910391;29;20111;-79
2023/07/17 15:22:09;;;;;;;3.38;0.60;;;19.00;99.90;;;;;;4902864;29;20073;-79
2023/07/17 15:24:35;;;;;;;4.07;0.82;;;19.00;99.90;;;;;;4902043;29;20051;-83
2023/07/17 15:27:01;;;;;;;5.47;0.90;;;18.90;99.90;;;;;;4895036;29;20040;-80
2023/07/17 15:29:27;;;;;;;3.15;0.80;;;18.80;99.90;;;;;;4903755;29;20455;-79
2023/07/17 15:31:53;;;;;;;2.83;0.73;;;18.90;99.90;;;;;;4916986;29;20479;-80
2023/07/17 15:34:18;;;;;;;3.55;0.80;;;18.90;99.90;;;;;;4934296;28;20055;-80
2023/07/17 15:36:44;;;;;;;3.08;0.88;;;19.40;99.90;;;;;;4937750;28;20037;-80
2023/07/17 15:39:10;;;;;;;3.42;1.02;;;19.60;99.90;;;;;;4926578;28;20407;-80
2023/07/17 15:41:35;;;;;;;4.35;0.98;;;19.70;99.90;;;;;;4937877;28;20050;-81
2023/07/17 15:44:01;;;;;;;2.17;0.77;;;20.00;99.90;;;;;;4922659;28;20039;-80
2023/07/17 15:46:27;;;;;;;2.13;0.63;;;20.10;99.90;;;;;;4929500;28;20039;-82
2023/07/17 15:48:53;;;;;;;2.13;0.63;;;20.10;99.90;;;;;;4922610;28;20036;-80
2023/07/17 15:51:18;;;;;;;1.95;0.77;;;20.10;99.90;;;;;;4941365;28;20042;-81
2023/07/17 15:53:44;;;;;;;3.65;0.90;;;20.10;99.90;;;;;;4907579;28;20070;-80
2023/07/17 15:56:10;;;;;;;3.80;0.70;;;20.00;99.90;;;;;;4935575;28;20130;-85
2023/07/17 15:58:36;;;;;;;4.20;0.85;;;19.50;99.90;;;;;;4921839;28;20118;-80
2023/07/17 16:01:02;;;;;;;5.68;0.90;;;19.30;99.90;;;;;;4933438;28;20044;-82
2023/07/17 16:03:28;;;;;;;4.15;0.82;;;19.30;99.90;;;;;;4926054;28;20538;-81
2023/07/17 16:05:54;;;;;;;4.97;0.90;;;19.60;99.90;;;;;;4941186;28;20122;-82
2023/07/17 16:08:20;;;;;;;3.40;0.73;;;19.60;99.90;;;;;;4942816;28;20061;-82
2023/07/17 16:10:46;;;;;;;3.05;0.73;;;19.60;99.90;;;;;;4927355;28;20042;-82
2023/07/17 16:13:12;;;;;;;1.73;0.50;;;19.60;99.90;;;;;;4944175;28;20090;-81
2023/07/17 16:15:38;;;;;;;1.33;0.40;;;19.50;99.90;;;;;;4923281;28;20096;-80
2023/07/17 16:18:04;;;;;;;3.90;0.50;;;19.50;99.90;;;;;;4916230;28;20043;-79
2023/07/17 16:20:29;;;;;;;1.90;0.50;;;19.50;99.90;;;;;;4930848;28;20048;-81
2023/07/17 16:22:55;;;;;;;2.67;0.40;;;19.80;99.90;;;;;;4940408;28;20031;-81
2023/07/17 16:25:21;;;;;;;2.15;0.47;;;19.80;99.90;;;;;;4930360;28;20118;-80
2023/07/17 16:27:47;;;;;;;2.03;0.50;;;19.60;99.90;;;;;;4943335;28;20047;-80
2023/07/17 16:30:13;;;;;;;1.77;0.55;;;19.60;99.90;;;;;;4931137;28;20082;-82
2023/07/17 16:32:39;;;;;;;2.33;0.50;;;19.60;99.90;;;;;;4931024;28;20058;-80
2023/07/17 16:35:04;;;;;;;1.90;0.50;;;20.00;99.90;;;;;;4925993;28;20768;-80
2023/07/17 16:37:30;;;;;;;2.58;0.50;;;20.10;99.90;;;;;;4928471;28;20052;-79
2023/07/17 16:39:56;;;;;;;2.42;0.43;;;20.30;99.90;;;;;;4937719;28;20090;-82
2023/07/17 16:42:22;;;;;;;2.13;0.68;;;20.40;99.90;;;;;;4943960;28;20058;-84
2023/07/17 16:44:47;;;;;;;2.25;0.60;;;20.20;99.90;;;;;;4942225;28;20039;-81
2023/07/17 16:47:13;;;;;;;2.15;0.47;;;20.10;99.90;;;;;;4941777;28;20039;-81
2023/07/17 16:49:39;;;;;;;2.25;0.50;;;20.30;99.90;;;;;;4927001;28;20094;-81
2023/07/17 16:52:05;;;;;;;1.75;0.50;;;20.10;99.90;;;;;;4941110;28;20035;-80
2023/07/17 16:54:31;;;;;;;2.75;0.50;;;20.10;99.90;;;;;;4926963;28;20111;-80
2023/07/17 16:56:56;;;;;;;2.03;0.50;;;20.20;99.90;;;;;;4937422;28;20395;-82
2023/07/17 16:59:22;;;;;;;2.25;0.47;;;20.20;99.90;;;;;;4917416;28;20071;-81
2023/07/17 17:01:48;;;;;;;1.52;0.40;;;20.50;99.90;;;;;;4914304;28;20395;-80
2023/07/17 17:04:14;;;;;;;2.58;0.50;;;20.50;99.90;;;;;;4914549;28;20039;-80
2023/07/17 17:06:39;;;;;;;1.80;0.50;;;20.50;99.90;;;;;;4928370;28;20031;-81
2023/07/17 17:09:15;;;;;;;3.08;0.60;;;20.30;99.90;;;;;;4935593;28;20078;-82
2023/07/17 17:11:41;;;;;;;2.08;0.60;;;20.30;99.90;;;;;;4883023;28;20057;-79
2023/07/17 17:14:07;;;;;;;2.72;0.60;;;20.30;99.90;;;;;;4936941;28;20039;-81
2023/07/17 17:16:34;;;;;;;2.58;0.60;;;20.30;99.90;;;;;;4936604;28;20075;-80
2023/07/17 17:18:59;;;;;;;2.83;0.57;;;20.20;99.90;;;;;;4932324;28;20051;-80
2023/07/17 17:21:28;;;;;;;2.72;0.55;;;20.30;99.90;;;;;;4931825;28;20057;-79
2023/07/17 17:23:55;;;;;;;4.23;0.53;;;20.20;99.90;;;;;;4931082;28;20506;-81
2023/07/17 17:26:21;;;;;;;2.78;0.70;;;20.10;99.90;;;;;;4924713;28;20728;-80
2023/07/17 17:28:46;;;;;;;2.92;0.50;;;20.00;99.90;;;;;;4914757;28;20098;-79
2023/07/17 17:31:12;;;;;;;4.63;0.60;;;20.10;99.90;;;;;;4933716;28;20048;-80
2023/07/17 17:33:38;;;;;;;2.40;0.43;;;20.10;99.90;;;;;;4931700;28;20058;-80
2023/07/17 17:36:04;;;;;;;3.50;0.50;;;20.20;99.90;;;;;;4908306;29;20055;-80
2023/07/17 17:38:30;;;;;;;2.95;0.60;;;20.00;99.90;;;;;;4923857;29;20043;-81
2023/07/17 17:40:56;;;;;;;2.60;0.40;;;20.00;99.90;;;;;;4891813;29;20471;-80
2023/07/17 17:43:22;;;;;;;3.00;0.50;;;19.90;99.90;;;;;;4922041;29;20066;-80
2023/07/17 17:45:48;;;;;;;2.78;0.38;;;20.00;99.90;;;;;;4907781;29;20050;-80
2023/07/17 17:48:16;;;;;;;2.55;0.40;;;20.20;99.90;;;;;;4911816;29;20048;-80
2023/07/17 17:50:42;;;;;;;2.20;0.50;;;20.20;99.90;;;;;;4913214;29;20066;-80
2023/07/17 17:53:08;;;;;;;2.55;0.40;;;20.10;99.90;;;;;;4907229;29;20043;-79
2023/07/17 17:55:34;;;;;;;2.50;0.50;;;20.10;99.90;;;;;;4925622;29;20051;-80
2023/07/17 17:58:00;;;;;;;4.82;0.65;;;20.10;99.90;;;;;;4922669;29;20071;-81
2023/07/17 18:00:25;;;;;;;3.50;0.52;;;20.00;99.90;;;;;;4925248;29;20530;-79
2023/07/17 18:02:54;;;;;;;3.25;0.68;;;20.00;99.90;;;;;;4912310;29;20394;-80
2023/07/17 18:05:20;;;;;;;3.30;0.70;;;20.10;99.90;;;;;;4911741;29;20082;-80
2023/07/17 18:07:46;;;;;;;2.38;0.50;;;20.10;99.90;;;;;;4925139;29;20083;-80
2023/07/17 18:10:12;;;;;;;4.80;0.70;;;20.00;99.90;;;;;;4928886;29;20036;-79
2023/07/17 18:12:38;;;;;;;2.63;0.40;;;19.90;99.90;;;;;;4895153;29;20086;-79
2023/07/17 18:15:05;;;;;;;3.10;0.50;;;19.90;99.90;;;;;;4894935;29;20051;-80
2023/07/17 18:17:31;;;;;;;2.08;0.40;;;19.90;99.90;;;;;;4905580;29;20055;-79
2023/07/17 18:19:57;;;;;;;1.45;0.30;;;19.80;99.90;;;;;;4924089;29;20431;-81
2023/07/17 18:22:23;;;;;;;2.35;0.40;;;19.80;99.90;;;;;;4919075;28;20051;-80
2023/07/17 18:24:49;;;;;;;3.65;0.40;;;19.70;99.90;;;;;;4891055;29;20039;-82
2023/07/17 18:27:14;;;;;;;2.72;0.70;;;19.60;99.90;;;;;;4907442;29;20044;-81
2023/07/17 18:29:40;;;;;;;3.70;0.50;;;19.60;99.90;;;;;;4907900;29;20051;-80
2023/07/17 18:32:06;;;;;;;3.88;0.70;;;19.60;99.90;;;;;;4912523;29;20047;-80
2023/07/17 18:34:33;;;;;;;3.80;0.40;;;19.50;99.90;;;;;;4920396;28;20059;-80
2023/07/17 18:36:59;;;;;;;2.00;0.40;;;19.50;99.90;;;;;;4923885;28;20043;-80
2023/07/17 18:39:28;;;;;;;1.83;0.40;;;19.40;99.90;;;;;;4909963;28;20054;-82
2023/07/17 18:41:56;;;;;;;2.65;0.30;;;19.40;99.90;;;;;;4908678;28;20039;-81
2023/07/17 18:44:22;;;;;;;2.83;0.28;;;19.40;99.90;;;;;;4916067;28;20055;-82
2023/07/17 18:46:48;;;;;;;2.28;0.20;;;19.40;99.90;;;;;;4909369;28;20055;-82
2023/07/17 18:49:15;;;;;;;1.27;0.30;;;19.30;99.90;;;;;;4925212;28;20551;-81
2023/07/17 18:51:40;;;;;;;1.88;0.20;;;19.20;99.90;;;;;;4916153;28;20132;-80
2023/07/17 18:54:06;;;;;;;1.70;0.10;;;19.10;99.90;;;;;;4924871;28;20055;-80
2023/07/17 18:56:33;;;;;;;3.20;0.20;;;19.10;99.90;;;;;;4908606;28;20559;-80
2023/07/17 18:59:02;;;;;;;4.78;0.30;;;19.10;99.90;;;;;;4934867;28;20050;-81
2023/07/17 19:01:27;;;;;;;2.50;0.20;;;19.00;99.90;;;;;;4925898;28;20046;-82
2023/07/17 19:03:53;;;;;;;3.90;0.30;;;19.00;99.90;;;;;;4934227;28;20164;-81
2023/07/17 19:06:19;;;;;;;1.65;0.20;;;19.00;99.90;;;;;;4932439;28;20039;-82
2023/07/17 19:08:46;;;;;;;2.63;0.30;;;18.90;99.90;;;;;;4923874;28;20040;-82
2023/07/17 19:11:18;;;;;;;1.58;0.20;;;18.80;99.90;;;;;;4932930;28;20058;-83
2023/07/17 19:13:45;;;;;;;2.22;0.20;;;18.70;99.90;;;;;;4910667;28;20091;-80
2023/07/17 19:16:11;;;;;;;2.28;0.20;;;18.60;99.90;;;;;;4907873;28;20044;-83
2023/07/17 19:18:37;;;;;;;2.20;0.20;;;18.50;99.90;;;;;;4938811;28;20044;-82
2023/07/17 19:21:03;;;;;;;1.45;0.17;;;18.50;99.90;;;;;;4910747;28;20047;-82
2023/07/17 19:23:28;;;;;;;3.30;0.17;;;18.30;99.90;;;;;;4930106;28;20036;-82
2023/07/17 19:25:54;;;;;;;2.63;0.35;;;18.20;99.90;;;;;;4941808;28;20047;-81
2023/07/17 19:28:20;;;;;;;1.45;0.10;;;18.30;99.90;;;;;;4909276;28;20051;-83
2023/07/17 19:30:49;;;;;;;4.90;0.25;;;18.10;99.90;;;;;;4933118;28;20054;-82
2023/07/17 19:33:15;;;;;;;2.15;0.25;;;18.10;99.90;;;;;;4936641;28;20091;-82
2023/07/17 19:35:40;;;;;;;2.30;0.30;;;18.10;99.90;;;;;;4938484;28;20134;-83
2023/07/17 19:38:06;;;;;;;2.30;0.20;;;18.00;99.90;;;;;;4919078;28;20127;-82
2023/07/17 19:40:32;;;;;;;0.68;0.20;;;17.90;99.90;;;;;;4939024;28;20142;-83
2023/07/17 19:42:58;;;;;;;1.25;0.20;;;17.80;99.90;;;;;;4907232;28;20090;-82
2023/07/17 19:45:24;;;;;;;2.28;0.20;;;17.70;99.90;;;;;;4927140;28;20485;-81
2023/07/17 19:47:50;;;;;;;2.80;0.30;;;17.60;99.90;;;;;;4906231;28;20050;-83
2023/07/17 19:50:16;;;;;;;4.60;0.30;;;17.50;99.90;;;;;;4936024;28;20605;-82
2023/07/17 19:52:42;;;;;;;2.03;0.20;;;17.50;99.90;;;;;;4942403;28;20039;-83
2023/07/17 19:55:08;;;;;;;0.90;0.13;;;17.40;99.90;;;;;;4905304;28;20043;-82
2023/07/17 19:57:36;;;;;;;0.65;0.10;;;17.40;99.90;;;;;;4920824;28;20054;-82
2023/07/17 20:00:04;;;;;;;1.83;0.15;;;17.40;99.90;;;;;;4919343;28;20058;-82
2023/07/17 20:02:32;;;;;;;1.40;0.10;;;17.30;99.90;;;;;;4939436;28;20118;-81
2023/07/17 20:04:58;;;;;;;2.75;0.20;;;17.20;99.90;;;;;;4936475;28;20053;-80
2023/07/17 20:07:24;;;;;;;1.15;0.20;;;17.10;99.90;;;;;;4936653;28;20727;-81
2023/07/17 20:09:49;;;;;;;1.88;0.17;;;17.10;99.90;;;;;;4919464;28;20051;-81
2023/07/17 20:12:15;;;;;;;1.33;0.17;;;17.10;99.90;;;;;;4934506;28;20054;-81
2023/07/17 20:14:41;;;;;;;0.85;0.10;;;17.00;99.90;;;;;;4912129;28;20130;-81
2023/07/17 20:17:07;;;;;;;2.17;0.20;;;16.90;99.90;;;;;;4904770;28;20058;-81
2023/07/17 20:19:32;;;;;;;0.85;0.10;;;16.80;99.90;;;;;;4936779;28;20522;-81
2023/07/17 20:21:58;;;;;;;0.60;0.10;;;16.70;99.90;;;;;;4943306;28;20111;-81
2023/07/17 20:24:25;;;;;;;0.93;0.10;;;16.70;99.90;;;;;;4941879;28;20483;-81
2023/07/17 20:26:51;;;;;;;1.35;0.20;;;16.60;99.90;;;;;;4916647;28;20067;-81
2023/07/17 20:29:17;;;;;;;2.58;0.10;;;16.60;99.90;;;;;;4937116;28;20043;-81
2023/07/17 20:31:42;;;;;;;1.55;0.10;;;16.50;99.90;;;;;;4924269;28;20046;-83
2023/07/17 20:34:08;;;;;;;0.85;0.10;;;16.50;99.90;;;;;;4940606;28;20115;-80
2023/07/17 20:36:34;;;;;;;0.70;0.10;;;16.40;99.90;;;;;;4915031;28;20252;-82
2023/07/17 20:38:59;;;;;;;0.90;0.10;;;16.30;99.90;;;;;;4924410;28;20483;-82
2023/07/17 20:41:25;;;;;;;0.73;0.10;;;16.20;99.90;;;;;;4941308;28;20122;-82
2023/07/17 20:43:51;;;;;;;1.00;0.10;;;16.10;99.90;;;;;;4937770;28;20395;-82
2023/07/17 20:46:17;;;;;;;2.65;0.20;;;16.00;99.90;;;;;;4925135;28;20043;-82
2023/07/17 20:48:43;;;;;;;0.60;0.10;;;16.00;99.90;;;;;;4939193;28;20059;-82
2023/07/17 20:51:13;;;;;;;1.10;0.10;;;15.80;99.90;;;;;;4940079;28;20043;-81
2023/07/17 20:53:39;;;;;;;1.10;0.15;;;15.80;99.90;;;;;;4942737;28;20031;-82
2023/07/17 20:56:05;;;;;;;1.80;0.20;;;15.70;99.90;;;;;;4924774;28;20063;-82
2023/07/17 20:58:32;;;;;;;1.13;0.20;;;15.60;99.90;;;;;;4925381;28;20065;-82
2023/07/17 21:01:19;;;;;;;0.98;0.20;;;15.60;99.90;;;;;;4942165;28;20747;-82
2023/07/17 21:03:45;;;;;;;1.77;0.15;;;15.60;99.90;;;;;;4929122;28;20399;-82
2023/07/17 21:06:10;;;;;;;0.52;0.10;;;15.50;99.90;;;;;;4922999;28;20046;-81
2023/07/17 21:08:37;;;;;;;1.02;0.17;;;15.50;99.90;;;;;;4941308;28;20074;-81
2023/07/17 21:11:03;;;;;;;0.32;0.10;;;15.50;99.90;;;;;;4935042;28;20040;-82
2023/07/17 21:13:30;;;;;;;0.60;0.10;;;15.40;99.90;;;;;;4919315;28;20039;-83
2023/07/17 21:15:58;;;;;;;0.65;0.10;;;15.30;99.90;;;;;;4949862;28;20031;-82
2023/07/17 21:18:24;;;;;;;1.33;0.10;;;15.30;99.90;;;;;;4933406;28;20063;-82
2023/07/17 21:20:50;;;;;;;1.00;0.10;;;15.30;99.90;;;;;;4934001;28;20058;-82